Flag for USA

Past Weather in 43°07'18"N, 88°05'33"W, USA — Yesterday and Last 2 Weeks

Currently: 34 °F. Clear. (Weather station: Milwaukee / Timmerman, USA). See more current weather

Past Weather in 43°07'18"N, 88°05'33"W — Graph

°F

43°07'18"N, 88°05'33"W Temperature Yesterday

Maximum temperature yesterday: 52 °F (at 11:45 am)
Minimum temperature yesterday: 34 °F (at 12:35 am)
Average temperature yesterday: 41 °F

High & Low Weather Summary for the Past Weeks

 TemperatureHumidityPressure
High84 °F (May 1, 3:45 pm)94% (May 3, 6:45 pm)30.43 "Hg (May 3, 6:45 pm)
Low32 °F (May 8, 5:55 am)16% (May 1, 4:45 pm)29.49 "Hg (May 2, 6:45 pm)
Average48 °F64%29.96 "Hg
* Reported Apr 27 3:15 am — May 12 3:35 am, 43°07'18"N, 88°05'33"W. Weather by CustomWeather, © 2021

Note: Actual official high and low records may vary slightly from our data, if they occured in-between our weather recording intervals... More about our weather records

43°07'18"N, 88°05'33"W Weather History for the Previous 24 Hours

Scroll right to see more
 ConditionsComfort  
Time TempWeatherWind HumidityBarometerVisibility
3:35 am
Wed, May 12
34 °FClear.No wind81%30.43 "Hg10 mi
3:15 am34 °FClear.No wind81%30.43 "Hg10 mi
2:55 am36 °FClear.No wind75%30.43 "Hg10 mi
2:35 am37 °FClear.No wind65%30.42 "Hg10 mi
2:15 am39 °FClear.No wind65%30.42 "Hg10 mi
1:55 am37 °FClear.No wind70%30.43 "Hg10 mi
1:35 am36 °FClear.No wind75%30.43 "Hg10 mi
1:15 am37 °FClear.No wind70%30.43 "Hg10 mi
12:55 am37 °FClear.No wind70%30.43 "Hg10 mi
12:35 am36 °FClear.No wind75%30.43 "Hg10 mi
12:15 am37 °FClear.No wind70%30.43 "Hg10 mi
11:55 pm
Tue, May 11
37 °FClear.No wind70%30.42 "Hg10 mi
11:35 pm37 °FClear.No wind70%30.43 "Hg10 mi
11:15 pm37 °FClear.No wind70%30.43 "Hg10 mi
10:55 pm41 °FClear.No wind61%30.43 "Hg10 mi
10:35 pm37 °FClear.No wind70%30.43 "Hg10 mi
10:15 pm41 °FClear.No wind61%30.42 "Hg10 mi
9:55 pm41 °FClear.No wind57%30.42 "Hg10 mi
9:35 pm43 °FClear.No wind53%30.42 "Hg10 mi
9:15 pm45 °FClear.No wind46%30.41 "Hg10 mi
7:45 pm48 °FSunny.6 mph37%30.38 "Hg10 mi
6:45 pm52 °FSunny.6 mph32%30.37 "Hg10 mi
5:45 pm52 °FSunny.6 mph32%30.36 "Hg10 mi
4:45 pm52 °FSunny.7 mph35%30.35 "Hg10 mi
3:45 pm52 °FSunny.12 mph35%30.34 "Hg10 mi
2:45 pm52 °FSunny.8 mph38%30.34 "Hg10 mi
1:45 pm50 °FScattered clouds.14 mph40%30.36 "Hg10 mi
12:45 pm52 °FPartly sunny.14 mph32%30.37 "Hg10 mi
11:45 am52 °FPartly sunny.14 mph32%30.37 "Hg10 mi
10:45 am48 °FPartly sunny.13 mph40%30.38 "Hg10 mi
9:45 am48 °FBroken clouds.13 mph40%30.36 "Hg10 mi
8:45 am46 °FSunny.10 mph50%30.36 "Hg10 mi
7:45 am45 °FSunny.10 mph53%30.34 "Hg10 mi
7:15 am41 °FScattered clouds.No wind70%30.33 "Hg10 mi
6:55 am39 °FOvercast.3 mph75%30.33 "Hg10 mi
6:35 am37 °FMore clouds than sun.No wind81%30.32 "Hg10 mi
6:15 am36 °FCloudy.No wind81%30.32 "Hg10 mi
5:55 am36 °FCloudy.No wind81%30.31 "Hg10 mi
5:35 am36 °FMore clouds than sun.No wind81%30.31 "Hg10 mi
5:15 am36 °FMostly cloudy.No wind81%30.30 "Hg10 mi
4:55 am36 °FMostly cloudy.No wind81%30.29 "Hg10 mi
4:35 am36 °FMostly cloudy.No wind87%30.29 "Hg10 mi
4:15 am36 °FPassing clouds.No wind87%30.28 "Hg10 mi
Weather by CustomWeather, © 2021

See weather overview